createdAt,value
2023-02-06T00:01:45.636Z,25.00
2023-02-06T00:04:14.629Z,28.40
2023-02-06T00:06:46.608Z,27.90
2023-02-06T00:09:15.996Z,32.50
2023-02-06T00:11:47.956Z,30.30
2023-02-06T00:14:16.645Z,32.40
2023-02-06T00:17:05.500Z,31.80
2023-02-06T00:19:36.042Z,29.40
2023-02-06T00:22:04.688Z,25.80
2023-02-06T00:24:33.605Z,28.50
2023-02-06T00:27:03.266Z,30.60
2023-02-06T00:29:32.409Z,31.80
2023-02-06T00:32:01.717Z,28.50
2023-02-06T00:34:30.709Z,27.60
2023-02-06T00:36:59.696Z,28.00
2023-02-06T00:39:28.796Z,37.80
2023-02-06T00:41:57.993Z,28.60
2023-02-06T00:44:27.208Z,25.90
2023-02-06T00:46:56.287Z,29.50
2023-02-06T00:49:25.486Z,29.90
2023-02-06T00:51:55.293Z,29.90
2023-02-06T00:54:24.118Z,36.80
2023-02-06T00:56:53.305Z,31.60
2023-02-06T00:59:22.089Z,31.60
2023-02-06T01:01:50.987Z,30.70
2023-02-06T01:04:20.051Z,26.20
2023-02-06T01:07:02.564Z,29.10
2023-02-06T01:09:33.118Z,24.90
2023-02-06T01:12:01.871Z,30.80
2023-02-06T01:14:30.895Z,29.10
2023-02-06T01:16:59.659Z,30.40
2023-02-06T01:19:28.250Z,29.10
2023-02-06T01:21:57.139Z,34.30
2023-02-06T01:24:26.126Z,32.70
2023-02-06T01:26:55.029Z,30.20
2023-02-06T01:29:23.793Z,28.90
2023-02-06T01:31:52.537Z,27.40
2023-02-06T01:34:21.673Z,26.70
2023-02-06T01:36:50.084Z,27.00
2023-02-06T01:39:19.152Z,32.70
2023-02-06T01:41:47.773Z,30.30
2023-02-06T01:44:18.774Z,40.50
2023-02-06T01:46:48.535Z,32.70
2023-02-06T01:49:35.500Z,38.60
2023-02-06T01:52:17.123Z,34.70
2023-02-06T01:54:47.348Z,24.90
2023-02-06T01:57:15.789Z,35.40
2023-02-06T01:59:46.798Z,32.50
2023-02-06T02:02:15.246Z,35.40
2023-02-06T02:04:43.792Z,26.30
2023-02-06T02:07:48.622Z,39.80
2023-02-06T02:10:18.235Z,28.20
2023-02-06T02:12:47.222Z,27.70
2023-02-06T02:15:16.132Z,31.50
2023-02-06T02:18:23.816Z,32.40
2023-02-06T02:21:11.756Z,32.70
2023-02-06T02:23:42.915Z,32.00
2023-02-06T02:26:47.626Z,31.10
2023-02-06T02:29:54.658Z,27.50
2023-02-06T02:32:49.514Z,36.30
2023-02-06T02:35:27.637Z,36.30
2023-02-06T02:38:02.934Z,32.30
2023-02-06T02:40:40.074Z,33.30
2023-02-06T02:43:45.492Z,26.70
2023-02-06T02:46:25.026Z,29.80
2023-02-06T02:48:55.189Z,29.00
2023-02-06T02:51:24.039Z,34.90
2023-02-06T02:53:52.719Z,36.40
2023-02-06T02:56:23.347Z,38.50
2023-02-06T02:58:55.844Z,36.90
2023-02-06T03:01:33.068Z,36.70
2023-02-06T03:04:08.255Z,35.10
2023-02-06T03:06:54.242Z,36.10
2023-02-06T03:09:32.649Z,41.20
2023-02-06T03:12:14.050Z,38.70
2023-02-06T03:15:04.589Z,31.90
2023-02-06T03:17:42.341Z,41.30
2023-02-06T03:20:11.050Z,33.40
2023-02-06T03:22:41.030Z,39.80
2023-02-06T03:25:13.358Z,33.70
2023-02-06T03:27:42.833Z,32.20
2023-02-06T03:30:12.623Z,32.20
2023-02-06T03:32:44.077Z,28.10
2023-02-06T03:35:18.081Z,33.60
2023-02-06T03:37:46.878Z,36.00
2023-02-06T03:40:34.819Z,36.60
2023-02-06T03:43:04.506Z,34.10
2023-02-06T03:45:42.854Z,33.70
2023-02-06T03:48:17.349Z,35.00
2023-02-06T03:50:47.320Z,33.30
2023-02-06T03:53:17.479Z,33.10
2023-02-06T03:55:46.502Z,30.10
2023-02-06T03:58:15.832Z,29.40
2023-02-06T04:00:44.771Z,34.50
2023-02-06T04:03:13.966Z,35.50
2023-02-06T04:05:43.166Z,36.20
2023-02-06T04:08:12.039Z,30.00
2023-02-06T04:10:41.146Z,32.40
2023-02-06T04:13:10.550Z,30.50
2023-02-06T04:15:40.089Z,34.20
2023-02-06T04:18:09.768Z,34.00
2023-02-06T04:20:41.252Z,37.90
2023-02-06T04:23:10.520Z,34.90
2023-02-06T04:25:39.380Z,43.80
2023-02-06T04:28:08.561Z,34.50
2023-02-06T04:30:37.545Z,38.10
2023-02-06T04:33:07.022Z,29.60
2023-02-06T04:35:36.457Z,30.50
2023-02-06T04:38:05.402Z,36.20
2023-02-06T04:40:34.595Z,37.80
2023-02-06T04:43:03.795Z,39.10
2023-02-06T04:45:32.576Z,31.10
2023-02-06T04:48:02.183Z,33.20
2023-02-06T04:50:32.139Z,39.80
2023-02-06T04:53:00.894Z,35.70
2023-02-06T04:55:30.082Z,32.10
2023-02-06T04:57:59.109Z,36.00
2023-02-06T05:00:27.971Z,36.70
2023-02-06T05:02:56.580Z,33.40
2023-02-06T05:05:25.436Z,36.60
2023-02-06T05:07:54.940Z,40.80
2023-02-06T05:10:23.836Z,37.60
2023-02-06T05:12:53.756Z,35.10
2023-02-06T05:15:22.937Z,51.50
2023-02-06T05:17:52.446Z,39.10
2023-02-06T05:20:21.644Z,29.80
2023-02-06T05:22:50.838Z,35.20
2023-02-06T05:25:20.033Z,38.10
2023-02-06T05:27:49.179Z,33.80
2023-02-06T05:30:18.173Z,33.70
2023-02-06T05:32:47.114Z,40.70
2023-02-06T05:35:16.211Z,36.30
2023-02-06T05:37:45.210Z,35.30
2023-02-06T05:40:14.208Z,42.10
2023-02-06T05:42:42.987Z,49.60
2023-02-06T05:45:12.090Z,47.40
2023-02-06T05:47:41.483Z,45.60
2023-02-06T05:50:10.633Z,37.60
2023-02-06T05:52:40.763Z,41.10
2023-02-06T05:55:09.997Z,41.00
2023-02-06T05:57:39.411Z,37.10
2023-02-06T06:00:09.934Z,35.60
2023-02-06T06:02:42.202Z,37.30
2023-02-06T06:05:11.268Z,38.80
2023-02-06T06:07:41.213Z,38.10
2023-02-06T06:10:10.101Z,44.00
2023-02-06T06:12:39.087Z,41.30
2023-02-06T06:15:09.675Z,33.40
2023-02-06T06:17:38.930Z,39.40
2023-02-06T06:20:09.078Z,45.20
2023-02-06T06:22:38.809Z,36.20
2023-02-06T06:25:09.276Z,43.50
2023-02-06T06:27:40.531Z,42.90
2023-02-06T06:30:10.642Z,42.40
2023-02-06T06:32:39.946Z,39.80
2023-02-06T06:35:09.347Z,35.80
2023-02-06T06:37:38.138Z,35.70
2023-02-06T06:40:08.366Z,34.10
2023-02-06T06:42:37.983Z,39.90
2023-02-06T06:45:07.882Z,35.50
2023-02-06T06:47:36.984Z,42.40
2023-02-06T06:50:06.773Z,38.20
2023-02-06T06:52:35.773Z,34.30
2023-02-06T06:55:05.840Z,32.30
2023-02-06T07:00:06.254Z,38.60
2023-02-06T07:02:35.336Z,36.80
2023-02-06T07:05:05.185Z,35.40
2023-02-06T07:07:35.034Z,21.40
2023-02-06T07:10:04.666Z,34.70
2023-02-06T07:12:34.912Z,36.40
2023-02-06T07:15:04.508Z,32.30
2023-02-06T07:17:33.485Z,29.50
2023-02-06T07:20:02.856Z,29.70
2023-02-06T07:22:32.493Z,31.60
2023-02-06T07:25:01.715Z,27.40
2023-02-06T07:27:30.846Z,28.80
2023-02-06T07:30:00.114Z,25.40
2023-02-06T07:32:29.286Z,33.40
2023-02-06T07:34:58.983Z,29.20
2023-02-06T07:37:28.607Z,27.10
2023-02-06T07:39:57.493Z,33.00
2023-02-06T07:42:26.706Z,27.30
2023-02-06T07:59:09.905Z,28.50
2023-02-06T08:01:40.428Z,26.10
2023-02-06T08:04:10.659Z,25.30
2023-02-06T08:06:42.852Z,26.10
2023-02-06T08:09:13.375Z,27.80
2023-02-06T08:11:49.005Z,26.00
2023-02-06T08:14:17.896Z,30.70
2023-02-06T08:16:46.875Z,30.00
2023-02-06T08:19:15.922Z,27.50
2023-02-06T08:21:44.840Z,30.00
2023-02-06T08:24:14.165Z,27.00
2023-02-06T08:26:44.182Z,42.00
2023-02-06T08:29:14.793Z,28.00
2023-02-06T08:31:43.982Z,28.50
2023-02-06T08:34:14.406Z,30.90
2023-02-06T08:36:43.798Z,30.60
2023-02-06T08:39:14.151Z,27.20
2023-02-06T08:41:43.769Z,32.00
2023-02-06T08:44:16.352Z,30.80
2023-02-06T08:46:46.226Z,35.10
2023-02-06T08:49:18.632Z,28.10
2023-02-06T08:51:47.759Z,28.10
2023-02-06T08:54:19.167Z,33.30
2023-02-06T08:56:48.534Z,26.20
2023-02-06T08:59:18.351Z,28.20
2023-02-06T09:01:49.458Z,32.10
2023-02-06T09:04:19.857Z,28.10
2023-02-06T09:06:49.575Z,30.90
2023-02-06T09:09:19.194Z,35.50
2023-02-06T09:11:48.303Z,26.20
2023-02-06T09:14:18.178Z,29.10
2023-02-06T09:16:47.396Z,28.10
2023-02-06T09:19:16.471Z,24.40
2023-02-06T09:21:45.154Z,27.00
2023-02-06T09:24:14.151Z,29.20
2023-02-06T09:26:58.603Z,26.90
2023-02-06T09:29:29.744Z,26.40
2023-02-06T09:31:58.756Z,24.30
2023-02-06T09:34:27.529Z,27.30
2023-02-06T09:36:57.068Z,28.10
2023-02-06T09:39:26.028Z,27.10
2023-02-06T09:42:06.976Z,26.50
2023-02-06T09:44:39.265Z,32.90
2023-02-06T09:47:33.241Z,29.00
2023-02-06T09:50:17.871Z,32.60
2023-02-06T09:53:05.186Z,27.10
2023-02-06T09:55:43.743Z,27.60
2023-02-06T09:58:19.597Z,28.70
2023-02-06T10:00:54.627Z,30.10
2023-02-06T10:03:32.324Z,30.60
2023-02-06T10:06:04.203Z,26.30
2023-02-06T10:08:45.521Z,26.70
2023-02-06T10:11:35.700Z,28.50
2023-02-06T10:14:10.795Z,28.40
2023-02-06T10:16:44.600Z,32.50
2023-02-06T10:19:44.149Z,35.30
2023-02-06T10:22:21.280Z,36.50
2023-02-06T10:25:01.442Z,35.00
2023-02-06T10:27:30.332Z,34.30
2023-02-06T10:29:59.427Z,31.00
2023-02-06T10:32:57.202Z,36.40
2023-02-06T10:35:29.270Z,36.00
2023-02-06T10:38:21.094Z,31.70
2023-02-06T10:40:57.152Z,37.50
2023-02-06T10:43:58.483Z,33.30
2023-02-06T10:46:41.762Z,27.80
2023-02-06T10:49:17.646Z,31.40
2023-02-06T10:51:49.490Z,27.20
2023-02-06T10:54:32.262Z,33.40
2023-02-06T10:57:01.107Z,38.30
2023-02-06T11:00:00.676Z,30.50
2023-02-06T11:02:45.320Z,30.40
2023-02-06T11:05:21.496Z,24.30
2023-02-06T11:07:55.489Z,34.70
2023-02-06T11:10:25.706Z,26.60
2023-02-06T11:13:12.955Z,27.80
2023-02-06T11:16:00.640Z,25.80
2023-02-06T11:18:40.812Z,31.20
2023-02-06T11:21:10.728Z,31.80
2023-02-06T11:23:40.132Z,31.40
2023-02-06T11:26:17.321Z,31.30
2023-02-06T11:28:52.862Z,35.00
2023-02-06T11:31:39.066Z,31.50
2023-02-06T11:34:08.030Z,33.10
2023-02-06T11:36:37.764Z,32.90
2023-02-06T11:39:32.663Z,31.90
2023-02-06T11:42:23.773Z,31.40
2023-02-06T11:44:54.202Z,29.20
2023-02-06T11:47:38.053Z,33.20
2023-02-06T11:50:13.786Z,31.50
2023-02-06T11:52:46.738Z,29.90
2023-02-06T11:55:27.671Z,34.10
2023-02-06T11:58:12.313Z,33.70
2023-02-06T12:00:42.656Z,34.80
2023-02-06T12:03:32.960Z,32.20
2023-02-06T12:06:15.900Z,31.50
2023-02-06T12:08:56.401Z,36.30
2023-02-06T12:11:47.514Z,32.00
2023-02-06T12:14:21.645Z,33.50
2023-02-06T12:16:55.462Z,35.60
2023-02-06T12:19:32.161Z,30.70
2023-02-06T12:22:27.684Z,32.00
2023-02-06T12:24:57.009Z,33.20
2023-02-06T12:27:39.153Z,38.20
2023-02-06T12:30:27.261Z,36.40
2023-02-06T12:33:23.289Z,30.80
2023-02-06T12:36:16.342Z,26.90
2023-02-06T12:39:00.796Z,25.40
2023-02-06T12:41:53.347Z,27.70
2023-02-06T12:44:34.518Z,25.80
2023-02-06T12:47:19.318Z,24.70
2023-02-06T12:50:16.136Z,21.60
2023-02-06T12:52:50.648Z,27.30
2023-02-06T12:55:24.377Z,26.30
2023-02-06T12:57:53.447Z,23.80
2023-02-06T13:00:28.584Z,24.90
2023-02-06T13:03:05.401Z,25.70
2023-02-06T13:05:43.345Z,25.90
2023-02-06T13:08:17.310Z,25.80
2023-02-06T13:10:48.318Z,30.80
2023-02-06T13:13:35.942Z,28.30
2023-02-06T13:16:05.958Z,27.20
2023-02-06T13:18:41.506Z,31.90
2023-02-06T13:21:28.965Z,29.10
2023-02-06T13:24:03.421Z,34.50
2023-02-06T13:26:56.662Z,28.00
2023-02-06T13:29:38.001Z,27.30
2023-02-06T13:32:14.792Z,31.70
2023-02-06T13:34:54.064Z,29.80
2023-02-06T13:37:43.903Z,24.00
2023-02-06T13:40:16.446Z,28.20
2023-02-06T13:43:09.278Z,21.70
2023-02-06T13:45:43.326Z,23.10
2023-02-06T13:48:19.179Z,20.50
2023-02-06T13:50:51.856Z,23.00
2023-02-06T13:53:42.688Z,19.10
2023-02-06T13:56:31.634Z,23.00
2023-02-06T13:59:07.296Z,21.70
2023-02-06T14:01:38.566Z,16.90
2023-02-06T14:04:11.009Z,17.50
2023-02-06T14:06:44.391Z,16.00
2023-02-06T14:09:51.175Z,17.10
2023-02-06T14:12:36.948Z,19.70
2023-02-06T14:15:21.108Z,18.60
2023-02-06T14:17:59.302Z,18.40
2023-02-06T14:20:46.837Z,18.60
2023-02-06T14:23:50.552Z,16.90
2023-02-06T14:26:45.333Z,19.90
2023-02-06T14:29:29.787Z,19.40
2023-02-06T14:32:42.882Z,19.30
2023-02-06T14:35:41.705Z,19.80
2023-02-06T14:38:39.701Z,19.70
2023-02-06T14:41:13.224Z,21.20
2023-02-06T14:43:43.669Z,21.40
2023-02-06T14:46:18.871Z,31.00
2023-02-06T14:48:52.571Z,28.40
2023-02-06T14:51:34.643Z,24.00
2023-02-06T14:54:27.092Z,20.50
2023-02-06T14:57:01.730Z,21.90
2023-02-06T14:59:31.234Z,21.10
2023-02-06T15:02:00.414Z,21.30
2023-02-06T15:04:30.380Z,20.70
2023-02-06T15:07:01.126Z,22.80
2023-02-06T15:09:35.390Z,22.40
2023-02-06T15:12:18.649Z,28.30
2023-02-06T15:15:04.933Z,26.40
2023-02-06T15:17:34.923Z,25.40
2023-02-06T15:20:20.819Z,23.50
2023-02-06T15:22:50.316Z,21.60
2023-02-06T15:25:45.276Z,22.20
2023-02-06T15:28:19.972Z,21.00
2023-02-06T15:30:59.645Z,22.10
2023-02-06T15:33:33.425Z,18.20
2023-02-06T15:36:03.745Z,19.80
2023-02-06T15:38:33.427Z,21.80
2023-02-06T15:41:06.889Z,25.80
2023-02-06T15:43:36.025Z,25.40
2023-02-06T15:46:06.143Z,26.10
2023-02-06T15:48:41.525Z,26.30
2023-02-06T15:51:31.884Z,26.00
2023-02-06T15:54:19.799Z,24.80
2023-02-06T15:57:03.752Z,23.30
2023-02-06T15:59:37.148Z,20.90
2023-02-06T16:02:06.167Z,20.80
2023-02-06T16:04:40.017Z,16.40
2023-02-06T16:07:20.307Z,20.40
2023-02-06T16:09:56.966Z,26.10
2023-02-06T16:12:26.749Z,22.10
2023-02-06T16:15:05.162Z,13.80
2023-02-06T16:17:36.836Z,22.90
2023-02-06T16:20:08.126Z,18.10
2023-02-06T16:22:38.746Z,21.00
2023-02-06T16:25:32.440Z,22.50
2023-02-06T16:28:02.457Z,21.20
2023-02-06T16:30:33.674Z,20.00
2023-02-06T16:33:19.349Z,20.60
2023-02-06T16:35:49.468Z,21.10
2023-02-06T16:38:18.560Z,23.10
2023-02-06T16:40:50.649Z,18.60
2023-02-06T16:43:20.546Z,20.00
2023-02-06T16:45:50.487Z,22.20
2023-02-06T16:48:19.387Z,25.70
2023-02-06T16:50:48.644Z,20.60
2023-02-06T16:53:23.392Z,22.60
2023-02-06T16:55:52.466Z,26.90
2023-02-06T16:58:23.407Z,24.50
2023-02-06T17:03:22.308Z,22.10
2023-02-06T17:05:53.092Z,21.80
2023-02-06T17:08:24.751Z,26.30
2023-02-06T17:10:53.910Z,27.80
2023-02-06T17:13:24.476Z,24.00
2023-02-06T17:15:54.310Z,22.20
2023-02-06T17:18:24.088Z,28.70
2023-02-06T17:20:54.080Z,25.30
2023-02-06T17:23:23.379Z,29.40
2023-02-06T17:25:52.568Z,24.10
2023-02-06T17:28:21.601Z,32.00
2023-02-06T17:30:51.543Z,24.00
2023-02-06T17:33:21.282Z,24.20
2023-02-06T17:35:51.502Z,24.10
2023-02-06T17:38:20.700Z,23.70
2023-02-06T17:40:50.110Z,23.20
2023-02-06T17:43:19.815Z,23.60
2023-02-06T17:45:49.558Z,23.40
2023-02-06T17:48:19.755Z,26.10
2023-02-06T17:50:49.563Z,28.30
2023-02-06T17:53:18.687Z,26.90
2023-02-06T17:55:48.470Z,20.30
2023-02-06T17:58:20.520Z,24.70
2023-02-06T18:00:50.930Z,23.40
2023-02-06T18:03:20.874Z,24.60
2023-02-06T18:06:00.383Z,22.70
2023-02-06T18:08:29.717Z,27.80
2023-02-06T18:10:59.326Z,23.30
2023-02-06T18:13:29.286Z,24.00
2023-02-06T18:15:58.642Z,24.30
2023-02-06T18:18:27.846Z,23.10
2023-02-06T18:20:57.791Z,28.60
2023-02-06T18:23:27.452Z,19.80
2023-02-06T18:26:05.669Z,23.90
2023-02-06T18:28:38.871Z,23.20
2023-02-06T18:31:24.477Z,23.40
2023-02-06T18:33:54.457Z,26.70
2023-02-06T18:36:23.630Z,25.00
2023-02-06T18:38:53.583Z,30.80
2023-02-06T18:41:42.020Z,29.20
2023-02-06T18:44:11.826Z,23.90
2023-02-06T18:46:42.135Z,27.90
2023-02-06T18:49:11.749Z,31.70
2023-02-06T18:51:41.195Z,25.70
2023-02-06T18:54:10.785Z,24.30
2023-02-06T18:56:40.369Z,27.00
2023-02-06T18:59:09.259Z,25.00
2023-02-06T19:01:38.661Z,31.80
2023-02-06T19:04:08.201Z,27.50
2023-02-06T19:06:40.537Z,28.30
2023-02-06T19:09:10.043Z,31.20
2023-02-06T19:11:40.261Z,26.20
2023-02-06T19:14:12.054Z,25.90
2023-02-06T19:16:45.022Z,28.30
2023-02-06T19:19:15.338Z,26.90
2023-02-06T19:21:44.528Z,25.40
2023-02-06T19:24:15.162Z,24.30
2023-02-06T19:26:44.766Z,28.00
2023-02-06T19:29:16.742Z,25.00
2023-02-06T19:31:46.967Z,24.20
2023-02-06T19:34:16.764Z,25.20
2023-02-06T19:36:46.060Z,26.30
2023-02-06T19:39:15.675Z,23.90
2023-02-06T19:41:45.997Z,23.40
2023-02-06T19:44:15.202Z,24.00
2023-02-06T19:46:44.696Z,24.70
2023-02-06T19:49:13.999Z,27.00
2023-02-06T19:51:45.909Z,29.70
2023-02-06T19:54:15.679Z,26.30
2023-02-06T19:56:47.178Z,23.20
2023-02-06T19:59:21.898Z,25.80
2023-02-06T20:01:59.126Z,23.60
2023-02-06T20:04:35.679Z,26.50
2023-02-06T20:07:06.022Z,24.70
2023-02-06T20:09:37.163Z,27.70
2023-02-06T20:12:10.078Z,25.80
2023-02-06T20:14:41.094Z,27.00
2023-02-06T20:17:10.548Z,27.30
2023-02-06T20:19:40.002Z,24.00
2023-02-06T20:22:09.527Z,27.60
2023-02-06T20:24:38.909Z,25.20
2023-02-06T20:27:08.931Z,25.00
2023-02-06T20:29:39.248Z,24.90
2023-02-06T20:32:08.850Z,29.40
2023-02-06T20:34:39.178Z,33.20
2023-02-06T20:37:10.913Z,35.40
2023-02-06T20:39:41.379Z,41.10
2023-02-06T20:42:10.991Z,35.10
2023-02-06T20:44:40.889Z,33.50
2023-02-06T20:47:10.605Z,33.20
2023-02-06T20:49:39.726Z,30.60
2023-02-06T20:52:12.517Z,26.70
2023-02-06T20:54:43.384Z,24.50
2023-02-06T20:57:12.989Z,26.10
2023-02-06T20:59:42.928Z,26.50
2023-02-06T21:02:12.426Z,21.00
2023-02-06T21:04:41.935Z,24.40
2023-02-06T21:07:11.128Z,25.20
2023-02-06T21:09:42.068Z,17.00
2023-02-06T21:12:11.686Z,23.90
2023-02-06T21:14:42.747Z,20.40
2023-02-06T21:17:12.422Z,24.90
2023-02-06T21:19:41.832Z,20.80
2023-02-06T21:22:11.962Z,22.10
2023-02-06T21:24:41.041Z,19.90
2023-02-06T21:27:10.552Z,21.90
2023-02-06T21:29:40.050Z,23.60
2023-02-06T21:32:14.016Z,23.10
2023-02-06T21:34:43.570Z,20.90
2023-02-06T21:37:13.206Z,21.60
2023-02-06T21:39:41.962Z,23.30
2023-02-06T21:42:11.712Z,23.00
2023-02-06T21:44:43.872Z,23.40
2023-02-06T21:47:13.556Z,18.90
2023-02-06T21:49:42.644Z,24.10
2023-02-06T21:52:11.351Z,21.90
2023-02-06T21:54:43.720Z,21.80
2023-02-06T21:57:12.722Z,18.80
2023-02-06T21:59:44.143Z,18.60
2023-02-06T22:02:13.651Z,26.10
2023-02-06T22:04:47.151Z,18.20
2023-02-06T22:07:16.249Z,21.20
2023-02-06T22:09:45.342Z,24.70
2023-02-06T22:12:14.538Z,20.90
2023-02-06T22:14:43.644Z,21.20
2023-02-06T22:17:12.624Z,20.40
2023-02-06T22:19:41.842Z,20.90
2023-02-06T22:22:12.779Z,19.90
2023-02-06T22:24:41.854Z,19.60
2023-02-06T22:27:11.976Z,19.10
2023-02-06T22:29:40.761Z,17.40
2023-02-06T22:32:09.875Z,20.60
2023-02-06T22:34:38.742Z,19.00
2023-02-06T22:37:07.840Z,17.20
2023-02-06T22:39:38.062Z,17.00
2023-02-06T22:42:07.460Z,15.90
2023-02-06T22:44:36.557Z,19.00
2023-02-06T22:47:06.161Z,21.30
2023-02-06T22:49:35.051Z,20.40
2023-02-06T22:52:04.144Z,19.10
2023-02-06T22:54:33.345Z,20.00
2023-02-06T22:57:02.444Z,19.70
2023-02-06T22:59:31.845Z,21.30
2023-02-06T23:02:02.710Z,18.50
2023-02-06T23:04:35.161Z,20.30
2023-02-06T23:07:04.677Z,26.30
2023-02-06T23:09:35.495Z,19.60
2023-02-06T23:12:11.660Z,21.00
2023-02-06T23:14:40.550Z,27.50
2023-02-06T23:17:10.667Z,31.80
2023-02-06T23:19:40.318Z,29.90
2023-02-06T23:22:11.005Z,21.90
2023-02-06T23:27:10.330Z,20.90
2023-02-06T23:29:39.522Z,19.50
2023-02-06T23:32:08.409Z,21.10
2023-02-06T23:34:39.096Z,21.30
2023-02-06T23:37:08.850Z,22.60
2023-02-06T23:39:37.847Z,21.50
2023-02-06T23:42:06.525Z,26.30
2023-02-06T23:44:35.332Z,24.90
2023-02-06T23:47:04.553Z,21.60
2023-02-06T23:49:33.449Z,22.00
2023-02-06T23:52:02.037Z,23.20
2023-02-06T23:54:31.493Z,24.10
2023-02-06T23:57:00.685Z,22.30
2023-02-06T23:59:30.196Z,22.70
